Terminal Aerodrome Forecast
Issued by NWS Charleston, WV

Current Version | Previous Version | Text Only | Print | Product List | Glossary Off
Versions: 1 2 3 4 5 6 7 8 9 10 11 12 13 14 15 16 17 18 19 20 21 22 23 24 25 26 27 28

000
FTUS41 KRLX 190500
TAFCRW
TAF
KCRW 190530Z 1906/2006 32005KT 6SM -RA BKN025 BKN035 OVC060
     FM190700 31007KT 6SM BR OVC013
     FM191200 30004KT 4SM BR SCT010
     FM192000 27004KT P6SM FEW025
     FM192300 00000KT P6SM SKC=

USA.gov is the U.S. government's official web portal to all federal, state and local government web resources and services.